sensor_id;sensor_type;location;lat;lon;timestamp;temperature;humidity
5962;DHT22;3007;50.770;0.250;2023-04-25T00:02:10;7.20;99.90
5962;DHT22;3007;50.770;0.250;2023-04-25T00:04:37;7.20;99.90
5962;DHT22;3007;50.770;0.250;2023-04-25T00:07:04;7.20;99.90
5962;DHT22;3007;50.770;0.250;2023-04-25T00:09:32;7.20;99.90
5962;DHT22;3007;50.770;0.250;2023-04-25T00:12:00;7.10;99.90
5962;DHT22;3007;50.770;0.250;2023-04-25T00:14:27;7.10;99.90
5962;DHT22;3007;50.770;0.250;2023-04-25T00:16:54;7.20;99.90
5962;DHT22;3007;50.770;0.250;2023-04-25T00:19:21;7.10;99.90
5962;DHT22;3007;50.770;0.250;2023-04-25T00:21:48;7.10;99.90
5962;DHT22;3007;50.770;0.250;2023-04-25T00:24:15;7.10;99.90
5962;DHT22;3007;50.770;0.250;2023-04-25T00:26:42;7.10;99.90
5962;DHT22;3007;50.770;0.250;2023-04-25T00:29:10;7.10;99.90
5962;DHT22;3007;50.770;0.250;2023-04-25T00:31:37;7.10;99.90
5962;DHT22;3007;50.770;0.250;2023-04-25T00:34:04;7.10;99.90
5962;DHT22;3007;50.770;0.250;2023-04-25T00:36:31;7.10;99.90
5962;DHT22;3007;50.770;0.250;2023-04-25T00:38:57;7.00;99.90
5962;DHT22;3007;50.770;0.250;2023-04-25T00:41:25;7.00;99.90
5962;DHT22;3007;50.770;0.250;2023-04-25T00:43:54;7.00;99.90
5962;DHT22;3007;50.770;0.250;2023-04-25T00:46:22;7.00;99.90
5962;DHT22;3007;50.770;0.250;2023-04-25T00:48:49;7.00;99.90
5962;DHT22;3007;50.770;0.250;2023-04-25T00:51:19;7.00;99.90
5962;DHT22;3007;50.770;0.250;2023-04-25T00:53:46;7.00;99.90
5962;DHT22;3007;50.770;0.250;2023-04-25T00:56:14;7.00;99.90
5962;DHT22;3007;50.770;0.250;2023-04-25T00:58:41;7.00;99.90
5962;DHT22;3007;50.770;0.250;2023-04-25T01:01:08;7.00;99.90
5962;DHT22;3007;50.770;0.250;2023-04-25T01:03:38;7.00;99.90
5962;DHT22;3007;50.770;0.250;2023-04-25T01:06:08;6.90;99.90
5962;DHT22;3007;50.770;0.250;2023-04-25T01:08:36;6.90;99.90
5962;DHT22;3007;50.770;0.250;2023-04-25T01:11:03;6.90;99.90
5962;DHT22;3007;50.770;0.250;2023-04-25T01:13:30;6.90;99.90
5962;DHT22;3007;50.770;0.250;2023-04-25T01:15:58;6.90;99.90
5962;DHT22;3007;50.770;0.250;2023-04-25T01:18:25;6.90;99.90
5962;DHT22;3007;50.770;0.250;2023-04-25T01:20:54;6.90;99.90
5962;DHT22;3007;50.770;0.250;2023-04-25T01:23:23;6.80;99.90
5962;DHT22;3007;50.770;0.250;2023-04-25T01:25:50;6.80;99.90
5962;DHT22;3007;50.770;0.250;2023-04-25T01:28:17;6.90;99.90
5962;DHT22;3007;50.770;0.250;2023-04-25T01:30:45;6.90;99.90
5962;DHT22;3007;50.770;0.250;2023-04-25T01:33:14;6.80;99.90
5962;DHT22;3007;50.770;0.250;2023-04-25T01:35:42;6.70;99.90
5962;DHT22;3007;50.770;0.250;2023-04-25T01:38:08;6.70;99.90
5962;DHT22;3007;50.770;0.250;2023-04-25T01:40:39;6.70;99.90
5962;DHT22;3007;50.770;0.250;2023-04-25T01:43:07;6.70;99.90
5962;DHT22;3007;50.770;0.250;2023-04-25T01:45:36;6.60;99.90
5962;DHT22;3007;50.770;0.250;2023-04-25T01:48:05;6.70;99.90
5962;DHT22;3007;50.770;0.250;2023-04-25T01:50:32;6.60;99.90
5962;DHT22;3007;50.770;0.250;2023-04-25T01:52:59;6.60;99.90
5962;DHT22;3007;50.770;0.250;2023-04-25T01:55:27;6.60;99.90
5962;DHT22;3007;50.770;0.250;2023-04-25T01:57:55;6.50;99.90
5962;DHT22;3007;50.770;0.250;2023-04-25T02:00:23;6.60;99.90
5962;DHT22;3007;50.770;0.250;2023-04-25T02:02:49;6.50;99.90
5962;DHT22;3007;50.770;0.250;2023-04-25T02:05:19;6.50;99.90
5962;DHT22;3007;50.770;0.250;2023-04-25T02:07:46;6.40;99.90
5962;DHT22;3007;50.770;0.250;2023-04-25T02:10:13;6.40;99.90
5962;DHT22;3007;50.770;0.250;2023-04-25T02:12:40;6.40;99.90
5962;DHT22;3007;50.770;0.250;2023-04-25T02:15:09;6.40;99.90
5962;DHT22;3007;50.770;0.250;2023-04-25T02:17:37;6.40;99.90
5962;DHT22;3007;50.770;0.250;2023-04-25T02:20:05;6.30;99.90
5962;DHT22;3007;50.770;0.250;2023-04-25T02:22:33;6.30;99.90
5962;DHT22;3007;50.770;0.250;2023-04-25T02:25:01;6.30;99.90
5962;DHT22;3007;50.770;0.250;2023-04-25T02:27:30;6.20;99.90
5962;DHT22;3007;50.770;0.250;2023-04-25T02:29:56;6.20;99.90
5962;DHT22;3007;50.770;0.250;2023-04-25T02:32:25;6.20;99.90
5962;DHT22;3007;50.770;0.250;2023-04-25T02:34:52;6.20;99.90
5962;DHT22;3007;50.770;0.250;2023-04-25T02:37:19;6.20;99.90
5962;DHT22;3007;50.770;0.250;2023-04-25T02:39:46;6.20;99.90
5962;DHT22;3007;50.770;0.250;2023-04-25T02:42:12;6.20;99.90
5962;DHT22;3007;50.770;0.250;2023-04-25T02:44:39;6.20;99.90
5962;DHT22;3007;50.770;0.250;2023-04-25T02:47:06;6.20;99.90
5962;DHT22;3007;50.770;0.250;2023-04-25T02:49:34;6.20;99.90
5962;DHT22;3007;50.770;0.250;2023-04-25T02:52:01;6.20;99.90
5962;DHT22;3007;50.770;0.250;2023-04-25T02:54:28;6.20;99.90
5962;DHT22;3007;50.770;0.250;2023-04-25T02:56:55;6.20;99.90
5962;DHT22;3007;50.770;0.250;2023-04-25T02:59:22;6.20;99.90
5962;DHT22;3007;50.770;0.250;2023-04-25T03:01:49;6.10;99.90
5962;DHT22;3007;50.770;0.250;2023-04-25T03:04:16;6.10;99.90
5962;DHT22;3007;50.770;0.250;2023-04-25T03:06:45;6.10;99.90
5962;DHT22;3007;50.770;0.250;2023-04-25T03:09:12;6.00;99.90
5962;DHT22;3007;50.770;0.250;2023-04-25T03:11:39;6.00;99.90
5962;DHT22;3007;50.770;0.250;2023-04-25T03:14:06;6.00;99.90
5962;DHT22;3007;50.770;0.250;2023-04-25T03:16:33;5.80;99.90
5962;DHT22;3007;50.770;0.250;2023-04-25T03:19:00;5.80;99.90
5962;DHT22;3007;50.770;0.250;2023-04-25T03:21:27;5.70;99.90
5962;DHT22;3007;50.770;0.250;2023-04-25T03:23:55;5.50;99.90
5962;DHT22;3007;50.770;0.250;2023-04-25T03:26:22;5.40;99.90
5962;DHT22;3007;50.770;0.250;2023-04-25T03:28:49;5.40;99.90
5962;DHT22;3007;50.770;0.250;2023-04-25T03:31:16;5.30;99.90
5962;DHT22;3007;50.770;0.250;2023-04-25T03:33:42;5.20;99.90
5962;DHT22;3007;50.770;0.250;2023-04-25T03:36:09;5.20;99.90
5962;DHT22;3007;50.770;0.250;2023-04-25T03:38:36;5.10;99.90
5962;DHT22;3007;50.770;0.250;2023-04-25T03:41:04;5.00;99.90
5962;DHT22;3007;50.770;0.250;2023-04-25T03:43:31;5.00;99.90
5962;DHT22;3007;50.770;0.250;2023-04-25T03:45:58;4.90;99.90
5962;DHT22;3007;50.770;0.250;2023-04-25T03:48:25;4.90;99.90
5962;DHT22;3007;50.770;0.250;2023-04-25T03:50:53;4.80;99.90
5962;DHT22;3007;50.770;0.250;2023-04-25T03:53:20;4.80;99.90
5962;DHT22;3007;50.770;0.250;2023-04-25T03:55:46;4.70;99.90
5962;DHT22;3007;50.770;0.250;2023-04-25T03:58:15;4.70;99.90
5962;DHT22;3007;50.770;0.250;2023-04-25T04:00:41;4.60;99.90
5962;DHT22;3007;50.770;0.250;2023-04-25T04:03:08;4.60;99.90
5962;DHT22;3007;50.770;0.250;2023-04-25T04:05:36;4.60;99.90
5962;DHT22;3007;50.770;0.250;2023-04-25T04:08:05;4.50;99.90
5962;DHT22;3007;50.770;0.250;2023-04-25T04:10:32;4.50;99.90
5962;DHT22;3007;50.770;0.250;2023-04-25T04:13:00;4.40;99.90
5962;DHT22;3007;50.770;0.250;2023-04-25T04:15:29;4.40;99.90
5962;DHT22;3007;50.770;0.250;2023-04-25T04:17:58;4.30;99.90
5962;DHT22;3007;50.770;0.250;2023-04-25T04:20:28;4.30;99.90
5962;DHT22;3007;50.770;0.250;2023-04-25T04:22:55;4.30;99.90
5962;DHT22;3007;50.770;0.250;2023-04-25T04:25:22;4.30;99.90
5962;DHT22;3007;50.770;0.250;2023-04-25T04:27:50;4.20;99.90
5962;DHT22;3007;50.770;0.250;2023-04-25T04:30:20;4.20;99.90
5962;DHT22;3007;50.770;0.250;2023-04-25T04:32:50;4.10;99.90
5962;DHT22;3007;50.770;0.250;2023-04-25T04:35:17;4.10;99.90
5962;DHT22;3007;50.770;0.250;2023-04-25T04:37:44;4.10;99.90
5962;DHT22;3007;50.770;0.250;2023-04-25T04:40:12;4.10;99.90
5962;DHT22;3007;50.770;0.250;2023-04-25T04:42:41;4.10;99.90
5962;DHT22;3007;50.770;0.250;2023-04-25T04:45:08;4.00;99.90
5962;DHT22;3007;50.770;0.250;2023-04-25T04:47:35;4.00;99.90
5962;DHT22;3007;50.770;0.250;2023-04-25T04:50:04;4.00;99.90
5962;DHT22;3007;50.770;0.250;2023-04-25T04:52:32;4.00;99.90
5962;DHT22;3007;50.770;0.250;2023-04-25T04:54:59;4.00;99.90
5962;DHT22;3007;50.770;0.250;2023-04-25T04:57:27;4.00;99.90
5962;DHT22;3007;50.770;0.250;2023-04-25T04:59:54;4.10;99.90
5962;DHT22;3007;50.770;0.250;2023-04-25T05:22:33;5.70;99.90
5962;DHT22;3007;50.770;0.250;2023-04-25T05:25:01;6.20;99.90
5962;DHT22;3007;50.770;0.250;2023-04-25T05:27:28;6.50;99.90
5962;DHT22;3007;50.770;0.250;2023-04-25T05:29:55;6.80;99.90
5962;DHT22;3007;50.770;0.250;2023-04-25T05:32:22;7.20;99.90
5962;DHT22;3007;50.770;0.250;2023-04-25T05:34:50;7.30;99.90
5962;DHT22;3007;50.770;0.250;2023-04-25T05:37:17;7.60;99.90
5962;DHT22;3007;50.770;0.250;2023-04-25T05:39:45;7.90;99.90
5962;DHT22;3007;50.770;0.250;2023-04-25T05:42:12;8.20;99.90
5962;DHT22;3007;50.770;0.250;2023-04-25T05:44:39;8.30;99.90
5962;DHT22;3007;50.770;0.250;2023-04-25T05:47:06;8.10;99.90
5962;DHT22;3007;50.770;0.250;2023-04-25T05:49:33;8.20;99.90
5962;DHT22;3007;50.770;0.250;2023-04-25T05:52:00;8.60;99.90
5962;DHT22;3007;50.770;0.250;2023-04-25T05:54:27;8.80;99.90
5962;DHT22;3007;50.770;0.250;2023-04-25T05:56:56;8.70;99.90
5962;DHT22;3007;50.770;0.250;2023-04-25T05:59:23;8.70;99.90
5962;DHT22;3007;50.770;0.250;2023-04-25T06:01:50;9.00;99.90
5962;DHT22;3007;50.770;0.250;2023-04-25T06:04:17;9.30;99.90
5962;DHT22;3007;50.770;0.250;2023-04-25T06:06:44;9.50;99.90
5962;DHT22;3007;50.770;0.250;2023-04-25T06:09:11;9.80;99.90
5962;DHT22;3007;50.770;0.250;2023-04-25T06:11:38;10.00;99.90
5962;DHT22;3007;50.770;0.250;2023-04-25T06:14:06;10.20;99.90
5962;DHT22;3007;50.770;0.250;2023-04-25T06:16:33;10.40;99.90
5962;DHT22;3007;50.770;0.250;2023-04-25T06:19:00;10.60;99.90
5962;DHT22;3007;50.770;0.250;2023-04-25T06:21:27;10.70;99.90
5962;DHT22;3007;50.770;0.250;2023-04-25T06:23:53;10.80;99.90
5962;DHT22;3007;50.770;0.250;2023-04-25T06:26:20;11.20;99.90
5962;DHT22;3007;50.770;0.250;2023-04-25T06:28:47;11.50;99.90
5962;DHT22;3007;50.770;0.250;2023-04-25T06:31:15;11.70;99.90
5962;DHT22;3007;50.770;0.250;2023-04-25T06:33:42;12.00;99.90
5962;DHT22;3007;50.770;0.250;2023-04-25T06:36:09;12.20;99.90
5962;DHT22;3007;50.770;0.250;2023-04-25T06:38:36;12.30;99.90
5962;DHT22;3007;50.770;0.250;2023-04-25T06:41:03;12.40;99.90
5962;DHT22;3007;50.770;0.250;2023-04-25T06:43:30;12.30;99.90
5962;DHT22;3007;50.770;0.250;2023-04-25T06:45:58;12.50;99.90
5962;DHT22;3007;50.770;0.250;2023-04-25T06:48:27;12.60;99.90
5962;DHT22;3007;50.770;0.250;2023-04-25T06:50:54;12.70;99.90
5962;DHT22;3007;50.770;0.250;2023-04-25T06:53:22;12.70;99.90
5962;DHT22;3007;50.770;0.250;2023-04-25T06:55:48;12.70;99.90
5962;DHT22;3007;50.770;0.250;2023-04-25T06:58:15;12.50;99.90
5962;DHT22;3007;50.770;0.250;2023-04-25T07:00:42;12.60;99.90
5962;DHT22;3007;50.770;0.250;2023-04-25T07:03:09;12.90;99.90
5962;DHT22;3007;50.770;0.250;2023-04-25T07:05:37;12.90;99.90
5962;DHT22;3007;50.770;0.250;2023-04-25T07:08:04;13.00;99.90
5962;DHT22;3007;50.770;0.250;2023-04-25T07:10:31;13.00;99.90
5962;DHT22;3007;50.770;0.250;2023-04-25T07:12:58;13.00;99.90
5962;DHT22;3007;50.770;0.250;2023-04-25T07:15:25;13.10;99.90
5962;DHT22;3007;50.770;0.250;2023-04-25T07:17:52;13.20;99.90
5962;DHT22;3007;50.770;0.250;2023-04-25T07:20:19;13.30;99.90
5962;DHT22;3007;50.770;0.250;2023-04-25T07:22:47;13.40;99.90
5962;DHT22;3007;50.770;0.250;2023-04-25T07:25:15;13.40;99.90
5962;DHT22;3007;50.770;0.250;2023-04-25T07:27:42;13.50;99.90
5962;DHT22;3007;50.770;0.250;2023-04-25T07:30:10;13.50;99.90
5962;DHT22;3007;50.770;0.250;2023-04-25T07:32:38;13.40;99.90
5962;DHT22;3007;50.770;0.250;2023-04-25T07:35:06;13.50;99.90
5962;DHT22;3007;50.770;0.250;2023-04-25T07:37:33;13.40;99.90
5962;DHT22;3007;50.770;0.250;2023-04-25T07:40:01;13.40;99.90
5962;DHT22;3007;50.770;0.250;2023-04-25T07:42:30;13.40;99.90
5962;DHT22;3007;50.770;0.250;2023-04-25T07:44:57;13.40;99.90
5962;DHT22;3007;50.770;0.250;2023-04-25T07:47:24;13.50;99.90
5962;DHT22;3007;50.770;0.250;2023-04-25T07:49:51;13.40;99.90
5962;DHT22;3007;50.770;0.250;2023-04-25T07:52:18;13.30;99.90
5962;DHT22;3007;50.770;0.250;2023-04-25T07:54:48;13.20;99.90
5962;DHT22;3007;50.770;0.250;2023-04-25T07:57:16;13.20;99.90
5962;DHT22;3007;50.770;0.250;2023-04-25T07:59:43;13.30;99.90
5962;DHT22;3007;50.770;0.250;2023-04-25T08:02:10;13.40;99.90
5962;DHT22;3007;50.770;0.250;2023-04-25T08:04:37;13.40;99.90
5962;DHT22;3007;50.770;0.250;2023-04-25T08:07:04;13.50;99.90
5962;DHT22;3007;50.770;0.250;2023-04-25T08:09:31;13.50;99.90
5962;DHT22;3007;50.770;0.250;2023-04-25T08:12:00;13.50;99.90
5962;DHT22;3007;50.770;0.250;2023-04-25T08:14:29;13.40;99.90
5962;DHT22;3007;50.770;0.250;2023-04-25T08:17:01;13.30;99.90
5962;DHT22;3007;50.770;0.250;2023-04-25T08:19:29;13.40;99.90
5962;DHT22;3007;50.770;0.250;2023-04-25T08:21:56;13.40;99.90
5962;DHT22;3007;50.770;0.250;2023-04-25T08:24:23;13.40;99.90
5962;DHT22;3007;50.770;0.250;2023-04-25T08:26:49;13.40;99.90
5962;DHT22;3007;50.770;0.250;2023-04-25T08:29:16;13.50;99.90
5962;DHT22;3007;50.770;0.250;2023-04-25T08:31:44;13.50;99.90
5962;DHT22;3007;50.770;0.250;2023-04-25T08:34:11;13.60;99.90
5962;DHT22;3007;50.770;0.250;2023-04-25T08:36:39;13.80;99.90
5962;DHT22;3007;50.770;0.250;2023-04-25T08:39:06;13.60;99.90
5962;DHT22;3007;50.770;0.250;2023-04-25T08:41:34;13.50;99.90
5962;DHT22;3007;50.770;0.250;2023-04-25T08:44:03;13.50;99.90
5962;DHT22;3007;50.770;0.250;2023-04-25T08:46:30;13.50;99.90
5962;DHT22;3007;50.770;0.250;2023-04-25T08:49:01;13.20;99.90
5962;DHT22;3007;50.770;0.250;2023-04-25T08:51:30;12.90;99.90
5962;DHT22;3007;50.770;0.250;2023-04-25T08:54:07;12.60;99.90
5962;DHT22;3007;50.770;0.250;2023-04-25T08:56:35;12.20;99.90
5962;DHT22;3007;50.770;0.250;2023-04-25T08:59:02;11.90;99.90
5962;DHT22;3007;50.770;0.250;2023-04-25T09:01:29;11.70;99.90
5962;DHT22;3007;50.770;0.250;2023-04-25T09:03:58;11.60;99.90
5962;DHT22;3007;50.770;0.250;2023-04-25T09:06:25;11.40;99.90
5962;DHT22;3007;50.770;0.250;2023-04-25T09:08:53;11.40;99.90
5962;DHT22;3007;50.770;0.250;2023-04-25T09:11:20;11.40;99.90
5962;DHT22;3007;50.770;0.250;2023-04-25T09:13:47;11.40;99.90
5962;DHT22;3007;50.770;0.250;2023-04-25T09:16:13;11.30;99.90
5962;DHT22;3007;50.770;0.250;2023-04-25T09:18:42;11.30;99.90
5962;DHT22;3007;50.770;0.250;2023-04-25T09:21:11;11.20;99.90
5962;DHT22;3007;50.770;0.250;2023-04-25T09:23:44;11.10;99.90
5962;DHT22;3007;50.770;0.250;2023-04-25T09:26:14;11.00;99.90
5962;DHT22;3007;50.770;0.250;2023-04-25T09:28:41;10.80;99.90
5962;DHT22;3007;50.770;0.250;2023-04-25T09:31:10;10.60;99.90
5962;DHT22;3007;50.770;0.250;2023-04-25T09:33:37;10.50;99.90
5962;DHT22;3007;50.770;0.250;2023-04-25T09:36:06;10.50;99.90
5962;DHT22;3007;50.770;0.250;2023-04-25T09:38:40;10.50;99.90
5962;DHT22;3007;50.770;0.250;2023-04-25T09:41:07;10.50;99.90
5962;DHT22;3007;50.770;0.250;2023-04-25T09:43:34;10.50;99.90
5962;DHT22;3007;50.770;0.250;2023-04-25T09:46:02;10.50;99.90
5962;DHT22;3007;50.770;0.250;2023-04-25T09:48:29;10.50;99.90
5962;DHT22;3007;50.770;0.250;2023-04-25T09:51:06;10.50;99.90
5962;DHT22;3007;50.770;0.250;2023-04-25T09:53:34;10.50;99.90
5962;DHT22;3007;50.770;0.250;2023-04-25T09:56:04;10.50;99.90
5962;DHT22;3007;50.770;0.250;2023-04-25T09:58:32;10.40;99.90
5962;DHT22;3007;50.770;0.250;2023-04-25T10:01:00;10.50;99.90
5962;DHT22;3007;50.770;0.250;2023-04-25T10:03:29;10.60;99.90
5962;DHT22;3007;50.770;0.250;2023-04-25T10:05:59;10.60;99.90
5962;DHT22;3007;50.770;0.250;2023-04-25T10:08:30;10.60;99.90
5962;DHT22;3007;50.770;0.250;2023-04-25T10:11:01;10.40;99.90
5962;DHT22;3007;50.770;0.250;2023-04-25T10:13:29;10.30;99.90
5962;DHT22;3007;50.770;0.250;2023-04-25T10:16:01;10.30;99.90
5962;DHT22;3007;50.770;0.250;2023-04-25T10:18:29;10.30;99.90
5962;DHT22;3007;50.770;0.250;2023-04-25T10:20:59;10.40;99.90
5962;DHT22;3007;50.770;0.250;2023-04-25T10:23:27;10.50;99.90
5962;DHT22;3007;50.770;0.250;2023-04-25T10:25:56;10.70;99.90
5962;DHT22;3007;50.770;0.250;2023-04-25T10:28:25;10.80;99.90
5962;DHT22;3007;50.770;0.250;2023-04-25T10:30:59;11.00;99.90
5962;DHT22;3007;50.770;0.250;2023-04-25T10:33:36;11.00;99.90
5962;DHT22;3007;50.770;0.250;2023-04-25T10:36:10;10.90;99.90
5962;DHT22;3007;50.770;0.250;2023-04-25T10:38:38;10.90;99.90
5962;DHT22;3007;50.770;0.250;2023-04-25T10:41:06;10.90;99.90
5962;DHT22;3007;50.770;0.250;2023-04-25T10:43:37;10.90;99.90
5962;DHT22;3007;50.770;0.250;2023-04-25T10:46:14;11.10;99.90
5962;DHT22;3007;50.770;0.250;2023-04-25T10:48:48;11.20;99.90
5962;DHT22;3007;50.770;0.250;2023-04-25T10:51:20;11.20;99.90
5962;DHT22;3007;50.770;0.250;2023-04-25T10:53:57;11.30;99.90
5962;DHT22;3007;50.770;0.250;2023-04-25T10:56:26;11.30;99.90
5962;DHT22;3007;50.770;0.250;2023-04-25T10:59:05;11.20;99.90
5962;DHT22;3007;50.770;0.250;2023-04-25T11:01:36;11.10;99.90
5962;DHT22;3007;50.770;0.250;2023-04-25T11:04:03;11.10;99.90
5962;DHT22;3007;50.770;0.250;2023-04-25T11:06:37;11.10;99.90
5962;DHT22;3007;50.770;0.250;2023-04-25T11:09:10;11.00;99.90
5962;DHT22;3007;50.770;0.250;2023-04-25T11:11:38;11.10;99.90
5962;DHT22;3007;50.770;0.250;2023-04-25T11:14:07;11.20;99.90
5962;DHT22;3007;50.770;0.250;2023-04-25T11:16:33;11.40;99.90
5962;DHT22;3007;50.770;0.250;2023-04-25T11:19:01;11.60;99.90
5962;DHT22;3007;50.770;0.250;2023-04-25T11:21:29;11.60;99.90
5962;DHT22;3007;50.770;0.250;2023-04-25T11:23:57;11.60;99.90
5962;DHT22;3007;50.770;0.250;2023-04-25T11:26:24;11.60;99.90
5962;DHT22;3007;50.770;0.250;2023-04-25T11:28:57;11.50;99.90
5962;DHT22;3007;50.770;0.250;2023-04-25T11:31:26;11.30;99.90
5962;DHT22;3007;50.770;0.250;2023-04-25T11:33:53;11.30;99.90
5962;DHT22;3007;50.770;0.250;2023-04-25T11:36:22;11.30;99.90
5962;DHT22;3007;50.770;0.250;2023-04-25T11:38:49;11.30;99.90
5962;DHT22;3007;50.770;0.250;2023-04-25T11:41:17;11.20;99.90
5962;DHT22;3007;50.770;0.250;2023-04-25T11:43:44;11.10;99.90
5962;DHT22;3007;50.770;0.250;2023-04-25T11:46:11;11.10;99.90
5962;DHT22;3007;50.770;0.250;2023-04-25T11:48:40;11.10;99.90
5962;DHT22;3007;50.770;0.250;2023-04-25T11:51:06;11.10;99.90
5962;DHT22;3007;50.770;0.250;2023-04-25T11:53:34;11.30;99.90
5962;DHT22;3007;50.770;0.250;2023-04-25T11:56:01;11.40;99.90
5962;DHT22;3007;50.770;0.250;2023-04-25T11:58:28;11.60;99.90
5962;DHT22;3007;50.770;0.250;2023-04-25T12:00:56;11.80;99.90
5962;DHT22;3007;50.770;0.250;2023-04-25T12:03:24;11.70;99.90
5962;DHT22;3007;50.770;0.250;2023-04-25T12:06:03;11.70;99.90
5962;DHT22;3007;50.770;0.250;2023-04-25T12:08:30;11.70;99.90
5962;DHT22;3007;50.770;0.250;2023-04-25T12:10:58;11.60;99.90
5962;DHT22;3007;50.770;0.250;2023-04-25T12:13:26;11.50;99.90
5962;DHT22;3007;50.770;0.250;2023-04-25T12:15:54;11.40;99.90
5962;DHT22;3007;50.770;0.250;2023-04-25T12:18:23;11.40;99.90
5962;DHT22;3007;50.770;0.250;2023-04-25T12:20:52;11.40;99.90
5962;DHT22;3007;50.770;0.250;2023-04-25T12:23:26;11.40;99.90
5962;DHT22;3007;50.770;0.250;2023-04-25T12:25:54;11.50;99.90
5962;DHT22;3007;50.770;0.250;2023-04-25T12:28:23;11.60;99.90
5962;DHT22;3007;50.770;0.250;2023-04-25T12:30:54;11.70;99.90
5962;DHT22;3007;50.770;0.250;2023-04-25T12:33:21;12.00;99.90
5962;DHT22;3007;50.770;0.250;2023-04-25T12:35:48;12.10;99.90
5962;DHT22;3007;50.770;0.250;2023-04-25T12:38:21;12.30;99.90
5962;DHT22;3007;50.770;0.250;2023-04-25T12:40:49;12.40;99.90
5962;DHT22;3007;50.770;0.250;2023-04-25T12:43:16;12.40;99.90
5962;DHT22;3007;50.770;0.250;2023-04-25T12:45:43;12.50;99.90
5962;DHT22;3007;50.770;0.250;2023-04-25T12:48:10;12.40;99.90
5962;DHT22;3007;50.770;0.250;2023-04-25T12:50:37;12.40;99.90
5962;DHT22;3007;50.770;0.250;2023-04-25T12:53:04;12.30;99.90
5962;DHT22;3007;50.770;0.250;2023-04-25T12:55:31;12.30;99.90
5962;DHT22;3007;50.770;0.250;2023-04-25T12:57:59;12.20;99.90
5962;DHT22;3007;50.770;0.250;2023-04-25T13:00:26;12.10;99.90
5962;DHT22;3007;50.770;0.250;2023-04-25T13:02:53;12.00;99.90
5962;DHT22;3007;50.770;0.250;2023-04-25T13:05:20;11.90;99.90
5962;DHT22;3007;50.770;0.250;2023-04-25T13:07:47;11.90;99.90
5962;DHT22;3007;50.770;0.250;2023-04-25T13:10:13;11.90;99.90
5962;DHT22;3007;50.770;0.250;2023-04-25T13:12:41;12.00;99.90
5962;DHT22;3007;50.770;0.250;2023-04-25T13:15:10;12.10;99.90
5962;DHT22;3007;50.770;0.250;2023-04-25T13:17:37;12.20;99.90
5962;DHT22;3007;50.770;0.250;2023-04-25T13:20:06;12.40;99.90
5962;DHT22;3007;50.770;0.250;2023-04-25T13:22:34;12.60;99.90
5962;DHT22;3007;50.770;0.250;2023-04-25T13:25:03;12.80;99.90
5962;DHT22;3007;50.770;0.250;2023-04-25T13:27:30;12.90;99.90
5962;DHT22;3007;50.770;0.250;2023-04-25T13:29:59;12.90;99.90
5962;DHT22;3007;50.770;0.250;2023-04-25T13:32:27;12.80;99.90
5962;DHT22;3007;50.770;0.250;2023-04-25T13:34:54;12.80;99.90
5962;DHT22;3007;50.770;0.250;2023-04-25T13:37:21;12.70;99.90
5962;DHT22;3007;50.770;0.250;2023-04-25T13:39:49;12.70;99.90
5962;DHT22;3007;50.770;0.250;2023-04-25T13:42:16;12.60;99.90
5962;DHT22;3007;50.770;0.250;2023-04-25T13:44:43;12.70;99.90
5962;DHT22;3007;50.770;0.250;2023-04-25T13:47:10;12.70;99.90
5962;DHT22;3007;50.770;0.250;2023-04-25T13:49:41;12.70;99.90
5962;DHT22;3007;50.770;0.250;2023-04-25T13:52:08;12.70;99.90
5962;DHT22;3007;50.770;0.250;2023-04-25T13:54:35;12.70;99.90
5962;DHT22;3007;50.770;0.250;2023-04-25T13:57:02;12.70;99.90
5962;DHT22;3007;50.770;0.250;2023-04-25T13:59:30;12.80;99.90
5962;DHT22;3007;50.770;0.250;2023-04-25T14:01:56;12.80;99.90
5962;DHT22;3007;50.770;0.250;2023-04-25T14:04:25;12.90;99.90
5962;DHT22;3007;50.770;0.250;2023-04-25T14:06:56;12.90;99.90
5962;DHT22;3007;50.770;0.250;2023-04-25T14:09:23;12.90;99.90
5962;DHT22;3007;50.770;0.250;2023-04-25T14:11:54;12.90;99.90
5962;DHT22;3007;50.770;0.250;2023-04-25T14:14:24;12.70;99.90
5962;DHT22;3007;50.770;0.250;2023-04-25T14:16:54;12.60;99.90
5962;DHT22;3007;50.770;0.250;2023-04-25T14:19:22;12.50;99.90
5962;DHT22;3007;50.770;0.250;2023-04-25T14:21:49;12.30;99.90
5962;DHT22;3007;50.770;0.250;2023-04-25T14:24:18;12.20;99.90
5962;DHT22;3007;50.770;0.250;2023-04-25T14:26:44;12.10;99.90
5962;DHT22;3007;50.770;0.250;2023-04-25T14:29:12;12.10;99.90
5962;DHT22;3007;50.770;0.250;2023-04-25T14:31:39;12.10;99.90
5962;DHT22;3007;50.770;0.250;2023-04-25T14:34:07;12.10;99.90
5962;DHT22;3007;50.770;0.250;2023-04-25T14:36:35;12.10;99.90
5962;DHT22;3007;50.770;0.250;2023-04-25T14:39:02;12.30;99.90
5962;DHT22;3007;50.770;0.250;2023-04-25T14:41:31;12.40;99.90
5962;DHT22;3007;50.770;0.250;2023-04-25T14:43:59;12.50;99.90
5962;DHT22;3007;50.770;0.250;2023-04-25T14:46:26;12.70;99.90
5962;DHT22;3007;50.770;0.250;2023-04-25T14:48:54;12.70;99.90
5962;DHT22;3007;50.770;0.250;2023-04-25T14:51:21;12.70;99.90
5962;DHT22;3007;50.770;0.250;2023-04-25T14:53:48;12.70;99.90
5962;DHT22;3007;50.770;0.250;2023-04-25T14:56:15;12.60;99.90
5962;DHT22;3007;50.770;0.250;2023-04-25T14:58:43;12.40;99.90
5962;DHT22;3007;50.770;0.250;2023-04-25T15:01:11;12.30;99.90
5962;DHT22;3007;50.770;0.250;2023-04-25T15:03:38;12.00;99.90
5962;DHT22;3007;50.770;0.250;2023-04-25T15:06:05;11.90;99.90
5962;DHT22;3007;50.770;0.250;2023-04-25T15:08:33;11.70;99.90
5962;DHT22;3007;50.770;0.250;2023-04-25T15:11:00;11.50;99.90
5962;DHT22;3007;50.770;0.250;2023-04-25T15:13:28;11.40;99.90
5962;DHT22;3007;50.770;0.250;2023-04-25T15:15:57;11.30;99.90
5962;DHT22;3007;50.770;0.250;2023-04-25T15:18:24;11.30;99.90
5962;DHT22;3007;50.770;0.250;2023-04-25T15:20:51;11.20;99.90
5962;DHT22;3007;50.770;0.250;2023-04-25T15:23:18;11.30;99.90
5962;DHT22;3007;50.770;0.250;2023-04-25T15:25:45;11.30;99.90
5962;DHT22;3007;50.770;0.250;2023-04-25T15:28:12;11.40;99.90
5962;DHT22;3007;50.770;0.250;2023-04-25T15:30:41;11.50;99.90
5962;DHT22;3007;50.770;0.250;2023-04-25T15:33:09;11.50;99.90
5962;DHT22;3007;50.770;0.250;2023-04-25T15:35:36;11.70;99.90
5962;DHT22;3007;50.770;0.250;2023-04-25T15:38:03;11.80;99.90
5962;DHT22;3007;50.770;0.250;2023-04-25T15:40:30;11.90;99.90
5962;DHT22;3007;50.770;0.250;2023-04-25T15:42:57;12.00;99.90
5962;DHT22;3007;50.770;0.250;2023-04-25T15:45:24;12.20;99.90
5962;DHT22;3007;50.770;0.250;2023-04-25T15:47:51;12.20;99.90
5962;DHT22;3007;50.770;0.250;2023-04-25T15:50:21;12.20;99.90
5962;DHT22;3007;50.770;0.250;2023-04-25T15:52:48;12.20;99.90
5962;DHT22;3007;50.770;0.250;2023-04-25T15:55:15;12.10;99.90
5962;DHT22;3007;50.770;0.250;2023-04-25T15:57:43;12.10;99.90
5962;DHT22;3007;50.770;0.250;2023-04-25T16:00:11;12.20;99.90
5962;DHT22;3007;50.770;0.250;2023-04-25T16:02:40;12.20;99.90
5962;DHT22;3007;50.770;0.250;2023-04-25T16:05:08;12.20;99.90
5962;DHT22;3007;50.770;0.250;2023-04-25T16:07:37;12.20;99.90
5962;DHT22;3007;50.770;0.250;2023-04-25T16:10:05;12.00;99.90
5962;DHT22;3007;50.770;0.250;2023-04-25T16:12:32;11.80;99.90
5962;DHT22;3007;50.770;0.250;2023-04-25T16:14:58;11.70;99.90
5962;DHT22;3007;50.770;0.250;2023-04-25T16:17:25;11.60;99.90
5962;DHT22;3007;50.770;0.250;2023-04-25T16:19:54;11.50;99.90
5962;DHT22;3007;50.770;0.250;2023-04-25T16:22:21;11.30;99.90
5962;DHT22;3007;50.770;0.250;2023-04-25T16:24:49;11.20;99.90
5962;DHT22;3007;50.770;0.250;2023-04-25T16:27:16;11.10;99.90
5962;DHT22;3007;50.770;0.250;2023-04-25T16:29:43;11.00;99.90
5962;DHT22;3007;50.770;0.250;2023-04-25T16:32:10;11.00;99.90